Khudzhand Airport
UTDL : now visible

Airfield :











YOU CAN JOIN US ON...

 
LOGIN :

Register | Disclaimer

   EN    FR    IT 

 









Legend :    VFR   Marginal VFR   IFR   Intensive IFR   Very Intensive IFR
Visi :
Ceiling :
>= 8 km
>= 3000ft
5 to 8 km
1000 to 3000 ft
1500m to 5 km
500 to 1000 ft
800 to 1500m
200 to 500 ft
< 800m
< 200 ft
Symbols :   Thunderstorms  Fog  Heavy snow  Heavy precipitations  Wind > 20 kt






- Airport Elevation : 1450 ft
- IATA code : LBD


UTDL - Khudzhand

CURRENT METAR :
  • 310800Z 08007MPS 9999 FEW046 34/02 Q1008 R08/CLRD70 NOSIG RMK QFE717/0956

EXPIRED METARs :
  • 310730Z 08007MPS 9999 FEW046 33/02 Q1008 R08/CLRD70 NOSIG RMK QFE717/0956
  • 310700Z 09008MPS 9999 FEW046 33/04 Q1008 R08/CLRD70 NOSIG RMK QFE717/0957
  • 310630Z 08008G13MPS 9999 FEW046 32/06 Q1009 R08/CLRD70 NOSIG RMK QFE718/0957
  • 310600Z 07008MPS 9999 FEW046 32/05 Q1009 R08/CLRD70 NOSIG RMK QFE718/0957
  • 310530Z 08008MPS 9999 NSC 30/06 Q1009 R08/CLRD70 NOSIG RMK QFE718/0957

TAF TAF UTDL
Valid from the 31 at 07:00 until the 31 at 19:00 UTC


310600Z 3107/3119 08005MPS 9999 FEW050 SCT080
BECMG 3110/3112 24005MPS
TEMPO 3110/3116 VRB10G15MPS FEW060CB
UTTR FIR / Asia



MET'MAP, your aeronautical weather chart ! - Copyright ORBIFLY December 2007 - Disclaimer

ORBIFLY MET'MAP TEAM :

Programming & Development : Alexandra Zaïnal
Concept & original design : Baudouin d'Aumeries
Assistance for programming : Marc-Olivier Méhu
Technical & hardware support : Manuel Goepfert

Contact : metmap@orbifly.com




SOURCES & CREDITS :

   NOAA       Earth
Advisory